sensor_id;sensor_type;location;lat;lon;timestamp;P1;durP1;ratioP1;P2;durP2;ratioP2
16928;SDS011;8581;47.334;11.190;2023-06-22T00:00:03;20.80;;;15.53;;
16928;SDS011;8581;47.334;11.190;2023-06-22T00:02:35;21.77;;;14.97;;
16928;SDS011;8581;47.334;11.190;2023-06-22T00:05:07;26.50;;;17.97;;
16928;SDS011;8581;47.334;11.190;2023-06-22T00:07:39;26.47;;;18.60;;
16928;SDS011;8581;47.334;11.190;2023-06-22T00:10:10;27.07;;;19.97;;
16928;SDS011;8581;47.334;11.190;2023-06-22T00:12:42;24.37;;;19.17;;
16928;SDS011;8581;47.334;11.190;2023-06-22T00:15:13;27.43;;;17.03;;
16928;SDS011;8581;47.334;11.190;2023-06-22T00:17:45;24.70;;;16.93;;
16928;SDS011;8581;47.334;11.190;2023-06-22T00:20:16;25.97;;;16.97;;
16928;SDS011;8581;47.334;11.190;2023-06-22T00:22:49;29.40;;;17.03;;
16928;SDS011;8581;47.334;11.190;2023-06-22T00:25:20;25.13;;;15.77;;
16928;SDS011;8581;47.334;11.190;2023-06-22T00:27:52;24.07;;;15.17;;
16928;SDS011;8581;47.334;11.190;2023-06-22T00:30:24;22.30;;;15.23;;
16928;SDS011;8581;47.334;11.190;2023-06-22T00:32:55;22.03;;;13.87;;
16928;SDS011;8581;47.334;11.190;2023-06-22T00:35:27;23.80;;;14.80;;
16928;SDS011;8581;47.334;11.190;2023-06-22T00:38:00;23.40;;;14.87;;
16928;SDS011;8581;47.334;11.190;2023-06-22T00:40:32;25.12;;;14.30;;
16928;SDS011;8581;47.334;11.190;2023-06-22T00:43:04;21.50;;;15.00;;
16928;SDS011;8581;47.334;11.190;2023-06-22T00:45:35;25.40;;;14.97;;
16928;SDS011;8581;47.334;11.190;2023-06-22T00:48:07;27.40;;;15.17;;
16928;SDS011;8581;47.334;11.190;2023-06-22T00:50:38;23.37;;;14.67;;
16928;SDS011;8581;47.334;11.190;2023-06-22T00:53:10;19.63;;;13.87;;
16928;SDS011;8581;47.334;11.190;2023-06-22T00:55:42;22.27;;;15.10;;
16928;SDS011;8581;47.334;11.190;2023-06-22T00:58:14;25.17;;;14.80;;
16928;SDS011;8581;47.334;11.190;2023-06-22T01:00:45;22.20;;;14.93;;
16928;SDS011;8581;47.334;11.190;2023-06-22T01:03:17;23.60;;;14.13;;
16928;SDS011;8581;47.334;11.190;2023-06-22T01:05:49;21.37;;;14.07;;
16928;SDS011;8581;47.334;11.190;2023-06-22T01:08:23;24.83;;;15.37;;
16928;SDS011;8581;47.334;11.190;2023-06-22T01:11:07;18.83;;;14.40;;
16928;SDS011;8581;47.334;11.190;2023-06-22T01:13:41;21.83;;;15.50;;
16928;SDS011;8581;47.334;11.190;2023-06-22T01:16:15;26.10;;;16.17;;
16928;SDS011;8581;47.334;11.190;2023-06-22T01:18:48;22.00;;;14.30;;
16928;SDS011;8581;47.334;11.190;2023-06-22T01:21:20;28.10;;;14.90;;
16928;SDS011;8581;47.334;11.190;2023-06-22T01:23:56;24.83;;;15.60;;
16928;SDS011;8581;47.334;11.190;2023-06-22T01:29:36;22.87;;;13.90;;
16928;SDS011;8581;47.334;11.190;2023-06-22T01:32:08;21.33;;;14.57;;
16928;SDS011;8581;47.334;11.190;2023-06-22T01:34:40;21.47;;;14.40;;
16928;SDS011;8581;47.334;11.190;2023-06-22T01:37:11;26.23;;;17.80;;
16928;SDS011;8581;47.334;11.190;2023-06-22T01:39:43;25.13;;;16.83;;
16928;SDS011;8581;47.334;11.190;2023-06-22T01:42:14;36.67;;;15.73;;
16928;SDS011;8581;47.334;11.190;2023-06-22T01:44:46;21.97;;;15.77;;
16928;SDS011;8581;47.334;11.190;2023-06-22T01:47:18;21.70;;;15.27;;
16928;SDS011;8581;47.334;11.190;2023-06-22T01:49:49;26.63;;;15.93;;
16928;SDS011;8581;47.334;11.190;2023-06-22T01:52:21;61.57;;;16.93;;
16928;SDS011;8581;47.334;11.190;2023-06-22T01:54:53;31.50;;;14.93;;
16928;SDS011;8581;47.334;11.190;2023-06-22T01:57:24;18.57;;;15.07;;
16928;SDS011;8581;47.334;11.190;2023-06-22T02:00:02;20.20;;;15.53;;
16928;SDS011;8581;47.334;11.190;2023-06-22T02:02:39;19.27;;;17.23;;
16928;SDS011;8581;47.334;11.190;2023-06-22T02:05:09;21.00;;;15.30;;
16928;SDS011;8581;47.334;11.190;2023-06-22T02:07:42;20.00;;;15.47;;
16928;SDS011;8581;47.334;11.190;2023-06-22T02:10:14;18.83;;;14.63;;
16928;SDS011;8581;47.334;11.190;2023-06-22T02:12:44;20.73;;;15.57;;
16928;SDS011;8581;47.334;11.190;2023-06-22T02:15:16;17.37;;;14.10;;
16928;SDS011;8581;47.334;11.190;2023-06-22T02:17:48;15.90;;;14.13;;
16928;SDS011;8581;47.334;11.190;2023-06-22T02:20:19;17.50;;;14.37;;
16928;SDS011;8581;47.334;11.190;2023-06-22T02:22:51;19.00;;;14.63;;
16928;SDS011;8581;47.334;11.190;2023-06-22T02:25:22;17.63;;;13.70;;
16928;SDS011;8581;47.334;11.190;2023-06-22T02:27:54;19.83;;;13.73;;
16928;SDS011;8581;47.334;11.190;2023-06-22T02:30:26;20.63;;;14.33;;
16928;SDS011;8581;47.334;11.190;2023-06-22T02:32:57;17.13;;;14.00;;
16928;SDS011;8581;47.334;11.190;2023-06-22T02:35:30;19.43;;;14.73;;
16928;SDS011;8581;47.334;11.190;2023-06-22T02:38:03;20.40;;;14.87;;
16928;SDS011;8581;47.334;11.190;2023-06-22T02:40:34;16.37;;;13.80;;
16928;SDS011;8581;47.334;11.190;2023-06-22T02:43:05;15.73;;;13.47;;
16928;SDS011;8581;47.334;11.190;2023-06-22T02:45:37;17.67;;;13.80;;
16928;SDS011;8581;47.334;11.190;2023-06-22T02:48:08;19.33;;;14.43;;
16928;SDS011;8581;47.334;11.190;2023-06-22T02:50:40;18.20;;;14.13;;
16928;SDS011;8581;47.334;11.190;2023-06-22T02:53:12;17.83;;;14.47;;
16928;SDS011;8581;47.334;11.190;2023-06-22T02:55:43;19.77;;;14.60;;
16928;SDS011;8581;47.334;11.190;2023-06-22T02:58:15;17.00;;;13.53;;
16928;SDS011;8581;47.334;11.190;2023-06-22T03:00:46;19.20;;;13.97;;
16928;SDS011;8581;47.334;11.190;2023-06-22T03:03:18;18.40;;;14.70;;
16928;SDS011;8581;47.334;11.190;2023-06-22T03:05:50;17.73;;;13.87;;
16928;SDS011;8581;47.334;11.190;2023-06-22T03:08:21;20.13;;;13.70;;
16928;SDS011;8581;47.334;11.190;2023-06-22T03:10:53;16.13;;;13.23;;
16928;SDS011;8581;47.334;11.190;2023-06-22T03:13:27;22.40;;;14.50;;
16928;SDS011;8581;47.334;11.190;2023-06-22T03:15:56;17.20;;;13.67;;
16928;SDS011;8581;47.334;11.190;2023-06-22T03:18:28;20.07;;;14.13;;
16928;SDS011;8581;47.334;11.190;2023-06-22T03:20:59;18.30;;;14.30;;
16928;SDS011;8581;47.334;11.190;2023-06-22T03:23:31;17.37;;;14.50;;
16928;SDS011;8581;47.334;11.190;2023-06-22T03:26:02;19.27;;;14.27;;
16928;SDS011;8581;47.334;11.190;2023-06-22T03:28:34;22.83;;;16.30;;
16928;SDS011;8581;47.334;11.190;2023-06-22T03:31:06;25.40;;;15.63;;
16928;SDS011;8581;47.334;11.190;2023-06-22T03:33:37;21.13;;;16.03;;
16928;SDS011;8581;47.334;11.190;2023-06-22T03:36:09;22.20;;;16.57;;
16928;SDS011;8581;47.334;11.190;2023-06-22T03:38:40;21.60;;;15.97;;
16928;SDS011;8581;47.334;11.190;2023-06-22T03:41:12;22.90;;;15.60;;
16928;SDS011;8581;47.334;11.190;2023-06-22T03:43:44;21.97;;;15.07;;
16928;SDS011;8581;47.334;11.190;2023-06-22T03:46:15;25.77;;;15.40;;
16928;SDS011;8581;47.334;11.190;2023-06-22T03:48:47;21.83;;;15.13;;
16928;SDS011;8581;47.334;11.190;2023-06-22T03:51:18;20.80;;;14.77;;
16928;SDS011;8581;47.334;11.190;2023-06-22T03:53:50;17.53;;;14.70;;
16928;SDS011;8581;47.334;11.190;2023-06-22T03:56:22;20.87;;;14.50;;
16928;SDS011;8581;47.334;11.190;2023-06-22T03:58:53;20.43;;;14.57;;
16928;SDS011;8581;47.334;11.190;2023-06-22T04:01:25;25.80;;;15.07;;
16928;SDS011;8581;47.334;11.190;2023-06-22T04:03:56;27.77;;;14.10;;
16928;SDS011;8581;47.334;11.190;2023-06-22T04:06:28;22.07;;;14.03;;
16928;SDS011;8581;47.334;11.190;2023-06-22T04:09:00;19.03;;;14.10;;
16928;SDS011;8581;47.334;11.190;2023-06-22T04:11:31;25.00;;;13.77;;
16928;SDS011;8581;47.334;11.190;2023-06-22T04:14:03;21.23;;;14.30;;
16928;SDS011;8581;47.334;11.190;2023-06-22T04:16:34;22.40;;;13.73;;
16928;SDS011;8581;47.334;11.190;2023-06-22T04:19:06;18.37;;;13.17;;
16928;SDS011;8581;47.334;11.190;2023-06-22T04:21:38;25.07;;;13.93;;
16928;SDS011;8581;47.334;11.190;2023-06-22T04:24:10;26.30;;;13.87;;
16928;SDS011;8581;47.334;11.190;2023-06-22T04:26:42;22.97;;;14.73;;
16928;SDS011;8581;47.334;11.190;2023-06-22T04:29:14;24.10;;;14.03;;
16928;SDS011;8581;47.334;11.190;2023-06-22T04:31:46;21.93;;;14.20;;
16928;SDS011;8581;47.334;11.190;2023-06-22T04:34:17;24.47;;;14.00;;
16928;SDS011;8581;47.334;11.190;2023-06-22T04:36:49;27.17;;;17.30;;
16928;SDS011;8581;47.334;11.190;2023-06-22T04:39:21;31.07;;;18.23;;
16928;SDS011;8581;47.334;11.190;2023-06-22T04:41:52;24.73;;;16.73;;
16928;SDS011;8581;47.334;11.190;2023-06-22T04:44:24;22.33;;;12.87;;
16928;SDS011;8581;47.334;11.190;2023-06-22T04:46:57;18.97;;;12.60;;
16928;SDS011;8581;47.334;11.190;2023-06-22T04:49:28;18.80;;;12.23;;
16928;SDS011;8581;47.334;11.190;2023-06-22T04:52:14;16.70;;;12.30;;
16928;SDS011;8581;47.334;11.190;2023-06-22T04:54:46;17.77;;;13.97;;
16928;SDS011;8581;47.334;11.190;2023-06-22T04:57:19;21.27;;;14.33;;
16928;SDS011;8581;47.334;11.190;2023-06-22T04:59:50;20.60;;;15.20;;
16928;SDS011;8581;47.334;11.190;2023-06-22T05:02:22;26.53;;;19.07;;
16928;SDS011;8581;47.334;11.190;2023-06-22T05:04:53;27.33;;;16.03;;
16928;SDS011;8581;47.334;11.190;2023-06-22T05:07:25;26.47;;;15.10;;
16928;SDS011;8581;47.334;11.190;2023-06-22T05:09:57;21.90;;;14.33;;
16928;SDS011;8581;47.334;11.190;2023-06-22T05:12:29;19.90;;;13.13;;
16928;SDS011;8581;47.334;11.190;2023-06-22T05:15:00;16.87;;;11.08;;
16928;SDS011;8581;47.334;11.190;2023-06-22T05:17:31;17.13;;;11.73;;
16928;SDS011;8581;47.334;11.190;2023-06-22T05:20:03;16.97;;;11.20;;
16928;SDS011;8581;47.334;11.190;2023-06-22T05:22:36;20.17;;;11.03;;
16928;SDS011;8581;47.334;11.190;2023-06-22T05:25:08;16.10;;;11.17;;
16928;SDS011;8581;47.334;11.190;2023-06-22T05:27:40;17.07;;;10.83;;
16928;SDS011;8581;47.334;11.190;2023-06-22T05:30:11;16.73;;;9.88;;
16928;SDS011;8581;47.334;11.190;2023-06-22T05:32:43;17.93;;;10.10;;
16928;SDS011;8581;47.334;11.190;2023-06-22T05:35:14;19.10;;;9.40;;
16928;SDS011;8581;47.334;11.190;2023-06-22T05:37:46;17.10;;;9.60;;
16928;SDS011;8581;47.334;11.190;2023-06-22T05:40:18;14.75;;;9.20;;
16928;SDS011;8581;47.334;11.190;2023-06-22T05:42:49;19.75;;;9.45;;
16928;SDS011;8581;47.334;11.190;2023-06-22T05:45:21;13.70;;;9.13;;
16928;SDS011;8581;47.334;11.190;2023-06-22T05:47:53;20.72;;;9.55;;
16928;SDS011;8581;47.334;11.190;2023-06-22T05:50:24;15.80;;;9.20;;
16928;SDS011;8581;47.334;11.190;2023-06-22T05:52:56;16.57;;;8.70;;
16928;SDS011;8581;47.334;11.190;2023-06-22T05:55:27;18.17;;;9.88;;
16928;SDS011;8581;47.334;11.190;2023-06-22T05:57:59;14.80;;;8.58;;
16928;SDS011;8581;47.334;11.190;2023-06-22T06:00:31;22.30;;;8.65;;
16928;SDS011;8581;47.334;11.190;2023-06-22T06:03:02;16.62;;;9.33;;
16928;SDS011;8581;47.334;11.190;2023-06-22T06:05:34;14.53;;;7.87;;
16928;SDS011;8581;47.334;11.190;2023-06-22T06:08:06;14.30;;;8.45;;
16928;SDS011;8581;47.334;11.190;2023-06-22T06:10:37;16.80;;;7.80;;
16928;SDS011;8581;47.334;11.190;2023-06-22T06:13:09;14.33;;;8.13;;
16928;SDS011;8581;47.334;11.190;2023-06-22T06:15:40;24.35;;;8.65;;
16928;SDS011;8581;47.334;11.190;2023-06-22T06:18:12;16.48;;;7.47;;
16928;SDS011;8581;47.334;11.190;2023-06-22T06:20:44;19.57;;;7.78;;
16928;SDS011;8581;47.334;11.190;2023-06-22T06:23:15;17.80;;;6.67;;
16928;SDS011;8581;47.334;11.190;2023-06-22T06:25:47;17.32;;;7.42;;
16928;SDS011;8581;47.334;11.190;2023-06-22T06:28:18;15.93;;;7.17;;
16928;SDS011;8581;47.334;11.190;2023-06-22T06:30:50;16.05;;;7.35;;
16928;SDS011;8581;47.334;11.190;2023-06-22T06:33:22;16.02;;;7.00;;
16928;SDS011;8581;47.334;11.190;2023-06-22T06:35:53;19.50;;;7.15;;
16928;SDS011;8581;47.334;11.190;2023-06-22T06:38:25;15.03;;;6.25;;
16928;SDS011;8581;47.334;11.190;2023-06-22T06:40:57;11.68;;;6.53;;
16928;SDS011;8581;47.334;11.190;2023-06-22T06:43:28;18.20;;;7.05;;
16928;SDS011;8581;47.334;11.190;2023-06-22T06:46:00;16.60;;;6.90;;
16928;SDS011;8581;47.334;11.190;2023-06-22T06:48:31;14.45;;;5.80;;
16928;SDS011;8581;47.334;11.190;2023-06-22T06:51:03;19.70;;;7.00;;
16928;SDS011;8581;47.334;11.190;2023-06-22T06:53:35;20.08;;;6.33;;
16928;SDS011;8581;47.334;11.190;2023-06-22T06:56:06;15.32;;;5.78;;
16928;SDS011;8581;47.334;11.190;2023-06-22T06:58:41;13.90;;;5.70;;
16928;SDS011;8581;47.334;11.190;2023-06-22T07:01:13;14.43;;;6.62;;
16928;SDS011;8581;47.334;11.190;2023-06-22T07:03:45;19.27;;;6.67;;
16928;SDS011;8581;47.334;11.190;2023-06-22T07:06:17;15.90;;;6.40;;
16928;SDS011;8581;47.334;11.190;2023-06-22T07:08:48;12.13;;;6.37;;
16928;SDS011;8581;47.334;11.190;2023-06-22T07:11:20;16.73;;;6.12;;
16928;SDS011;8581;47.334;11.190;2023-06-22T07:13:51;18.10;;;6.22;;
16928;SDS011;8581;47.334;11.190;2023-06-22T07:16:23;14.73;;;6.00;;
16928;SDS011;8581;47.334;11.190;2023-06-22T07:18:55;15.43;;;5.60;;
16928;SDS011;8581;47.334;11.190;2023-06-22T07:21:26;16.35;;;6.12;;
16928;SDS011;8581;47.334;11.190;2023-06-22T07:23:58;14.20;;;5.70;;
16928;SDS011;8581;47.334;11.190;2023-06-22T07:26:29;14.07;;;5.95;;
16928;SDS011;8581;47.334;11.190;2023-06-22T07:29:01;17.60;;;6.22;;
16928;SDS011;8581;47.334;11.190;2023-06-22T07:31:33;13.93;;;5.53;;
16928;SDS011;8581;47.334;11.190;2023-06-22T07:34:04;16.97;;;5.75;;
16928;SDS011;8581;47.334;11.190;2023-06-22T07:36:36;14.10;;;5.62;;
16928;SDS011;8581;47.334;11.190;2023-06-22T07:39:07;15.38;;;5.70;;
16928;SDS011;8581;47.334;11.190;2023-06-22T07:41:40;15.90;;;6.00;;
16928;SDS011;8581;47.334;11.190;2023-06-22T07:44:12;16.90;;;5.30;;
16928;SDS011;8581;47.334;11.190;2023-06-22T07:46:43;15.63;;;5.65;;
16928;SDS011;8581;47.334;11.190;2023-06-22T07:49:16;18.42;;;6.17;;
16928;SDS011;8581;47.334;11.190;2023-06-22T07:51:47;17.48;;;5.50;;
16928;SDS011;8581;47.334;11.190;2023-06-22T07:54:19;14.30;;;5.42;;
16928;SDS011;8581;47.334;11.190;2023-06-22T07:56:51;12.58;;;5.65;;
16928;SDS011;8581;47.334;11.190;2023-06-22T07:59:23;20.02;;;5.72;;
16928;SDS011;8581;47.334;11.190;2023-06-22T08:01:55;17.42;;;5.58;;
16928;SDS011;8581;47.334;11.190;2023-06-22T08:04:27;14.78;;;5.75;;
16928;SDS011;8581;47.334;11.190;2023-06-22T08:06:59;17.50;;;5.67;;
16928;SDS011;8581;47.334;11.190;2023-06-22T08:09:31;17.32;;;5.50;;
16928;SDS011;8581;47.334;11.190;2023-06-22T08:12:02;14.95;;;5.65;;
16928;SDS011;8581;47.334;11.190;2023-06-22T08:14:35;16.65;;;5.37;;
16928;SDS011;8581;47.334;11.190;2023-06-22T08:17:06;20.17;;;6.20;;
16928;SDS011;8581;47.334;11.190;2023-06-22T08:19:37;14.87;;;5.17;;
16928;SDS011;8581;47.334;11.190;2023-06-22T08:22:09;21.52;;;6.97;;
16928;SDS011;8581;47.334;11.190;2023-06-22T08:24:40;17.00;;;5.47;;
16928;SDS011;8581;47.334;11.190;2023-06-22T08:27:12;16.60;;;5.58;;
16928;SDS011;8581;47.334;11.190;2023-06-22T08:29:44;15.00;;;5.60;;
16928;SDS011;8581;47.334;11.190;2023-06-22T08:32:18;21.48;;;6.17;;
16928;SDS011;8581;47.334;11.190;2023-06-22T08:34:49;15.83;;;5.47;;
16928;SDS011;8581;47.334;11.190;2023-06-22T08:37:21;19.80;;;5.70;;
16928;SDS011;8581;47.334;11.190;2023-06-22T08:39:55;19.23;;;5.90;;
16928;SDS011;8581;47.334;11.190;2023-06-22T08:42:28;15.85;;;5.20;;
16928;SDS011;8581;47.334;11.190;2023-06-22T08:44:59;17.17;;;6.20;;
16928;SDS011;8581;47.334;11.190;2023-06-22T08:47:31;20.48;;;5.37;;
16928;SDS011;8581;47.334;11.190;2023-06-22T08:50:02;17.05;;;5.83;;
16928;SDS011;8581;47.334;11.190;2023-06-22T08:52:34;16.82;;;6.30;;
16928;SDS011;8581;47.334;11.190;2023-06-22T08:55:06;22.40;;;5.78;;
16928;SDS011;8581;47.334;11.190;2023-06-22T08:57:38;13.30;;;5.92;;
16928;SDS011;8581;47.334;11.190;2023-06-22T09:00:10;16.90;;;5.55;;
16928;SDS011;8581;47.334;11.190;2023-06-22T09:02:47;17.92;;;6.22;;
16928;SDS011;8581;47.334;11.190;2023-06-22T09:05:18;18.65;;;6.15;;
16928;SDS011;8581;47.334;11.190;2023-06-22T09:07:50;22.42;;;6.05;;
16928;SDS011;8581;47.334;11.190;2023-06-22T09:10:21;14.05;;;5.55;;
16928;SDS011;8581;47.334;11.190;2023-06-22T09:12:53;19.55;;;5.90;;
16928;SDS011;8581;47.334;11.190;2023-06-22T09:15:24;13.40;;;5.50;;
16928;SDS011;8581;47.334;11.190;2023-06-22T09:17:56;11.78;;;5.50;;
16928;SDS011;8581;47.334;11.190;2023-06-22T09:20:28;18.70;;;5.85;;
16928;SDS011;8581;47.334;11.190;2023-06-22T09:22:59;16.52;;;5.90;;
16928;SDS011;8581;47.334;11.190;2023-06-22T09:25:31;16.80;;;5.65;;
16928;SDS011;8581;47.334;11.190;2023-06-22T09:28:03;16.40;;;5.35;;
16928;SDS011;8581;47.334;11.190;2023-06-22T09:30:34;18.95;;;5.65;;
16928;SDS011;8581;47.334;11.190;2023-06-22T09:33:06;15.72;;;5.80;;
16928;SDS011;8581;47.334;11.190;2023-06-22T09:35:38;16.17;;;5.53;;
16928;SDS011;8581;47.334;11.190;2023-06-22T09:38:09;16.10;;;5.33;;
16928;SDS011;8581;47.334;11.190;2023-06-22T09:40:41;13.72;;;5.58;;
16928;SDS011;8581;47.334;11.190;2023-06-22T09:43:12;19.60;;;6.12;;
16928;SDS011;8581;47.334;11.190;2023-06-22T09:45:44;16.48;;;5.42;;
16928;SDS011;8581;47.334;11.190;2023-06-22T09:48:16;16.35;;;5.87;;
16928;SDS011;8581;47.334;11.190;2023-06-22T09:50:47;14.93;;;5.22;;
16928;SDS011;8581;47.334;11.190;2023-06-22T09:53:19;15.15;;;5.47;;
16928;SDS011;8581;47.334;11.190;2023-06-22T09:55:51;17.30;;;6.15;;
16928;SDS011;8581;47.334;11.190;2023-06-22T09:58:22;12.73;;;5.42;;
16928;SDS011;8581;47.334;11.190;2023-06-22T10:00:54;16.37;;;5.30;;
16928;SDS011;8581;47.334;11.190;2023-06-22T10:03:25;18.65;;;5.53;;
16928;SDS011;8581;47.334;11.190;2023-06-22T10:05:57;18.82;;;5.55;;
16928;SDS011;8581;47.334;11.190;2023-06-22T10:08:29;16.32;;;5.87;;
16928;SDS011;8581;47.334;11.190;2023-06-22T10:11:00;19.87;;;5.55;;
16928;SDS011;8581;47.334;11.190;2023-06-22T10:13:32;17.45;;;5.95;;
16928;SDS011;8581;47.334;11.190;2023-06-22T10:16:04;21.93;;;5.85;;
16928;SDS011;8581;47.334;11.190;2023-06-22T10:18:37;14.20;;;5.75;;
16928;SDS011;8581;47.334;11.190;2023-06-22T10:21:09;16.67;;;5.55;;
16928;SDS011;8581;47.334;11.190;2023-06-22T10:23:40;15.45;;;5.05;;
16928;SDS011;8581;47.334;11.190;2023-06-22T10:26:12;19.62;;;6.10;;
16928;SDS011;8581;47.334;11.190;2023-06-22T10:28:43;16.35;;;6.05;;
16928;SDS011;8581;47.334;11.190;2023-06-22T10:31:15;15.85;;;5.65;;
16928;SDS011;8581;47.334;11.190;2023-06-22T10:33:47;13.48;;;5.62;;
16928;SDS011;8581;47.334;11.190;2023-06-22T10:36:18;16.30;;;5.85;;
16928;SDS011;8581;47.334;11.190;2023-06-22T10:38:50;17.80;;;5.30;;
16928;SDS011;8581;47.334;11.190;2023-06-22T10:41:21;16.62;;;5.83;;
16928;SDS011;8581;47.334;11.190;2023-06-22T10:43:53;17.45;;;5.58;;
16928;SDS011;8581;47.334;11.190;2023-06-22T10:46:25;13.60;;;5.58;;
16928;SDS011;8581;47.334;11.190;2023-06-22T10:48:56;15.20;;;5.58;;
16928;SDS011;8581;47.334;11.190;2023-06-22T10:51:28;21.52;;;5.30;;
16928;SDS011;8581;47.334;11.190;2023-06-22T10:54:00;16.77;;;5.35;;
16928;SDS011;8581;47.334;11.190;2023-06-22T10:56:31;21.73;;;5.87;;
16928;SDS011;8581;47.334;11.190;2023-06-22T10:59:03;16.87;;;5.75;;
16928;SDS011;8581;47.334;11.190;2023-06-22T11:01:34;17.42;;;5.33;;
16928;SDS011;8581;47.334;11.190;2023-06-22T11:04:06;17.10;;;5.47;;
16928;SDS011;8581;47.334;11.190;2023-06-22T11:06:38;13.20;;;5.35;;
16928;SDS011;8581;47.334;11.190;2023-06-22T11:09:09;14.38;;;5.72;;
16928;SDS011;8581;47.334;11.190;2023-06-22T11:11:41;17.65;;;4.95;;
16928;SDS011;8581;47.334;11.190;2023-06-22T11:14:12;16.77;;;5.28;;
16928;SDS011;8581;47.334;11.190;2023-06-22T11:16:44;15.30;;;5.50;;
16928;SDS011;8581;47.334;11.190;2023-06-22T11:19:16;17.42;;;6.03;;
16928;SDS011;8581;47.334;11.190;2023-06-22T11:21:47;16.67;;;5.80;;
16928;SDS011;8581;47.334;11.190;2023-06-22T11:24:19;16.70;;;5.72;;
16928;SDS011;8581;47.334;11.190;2023-06-22T11:26:50;17.62;;;5.17;;
16928;SDS011;8581;47.334;11.190;2023-06-22T11:29:22;16.17;;;5.53;;
16928;SDS011;8581;47.334;11.190;2023-06-22T11:31:54;14.43;;;5.92;;
16928;SDS011;8581;47.334;11.190;2023-06-22T11:34:25;16.52;;;5.53;;
16928;SDS011;8581;47.334;11.190;2023-06-22T11:36:57;19.37;;;6.20;;
16928;SDS011;8581;47.334;11.190;2023-06-22T11:39:28;15.55;;;5.70;;
16928;SDS011;8581;47.334;11.190;2023-06-22T11:42:00;14.23;;;4.87;;
16928;SDS011;8581;47.334;11.190;2023-06-22T11:44:32;19.85;;;6.22;;
16928;SDS011;8581;47.334;11.190;2023-06-22T11:47:03;21.82;;;5.80;;
16928;SDS011;8581;47.334;11.190;2023-06-22T11:49:36;23.80;;;6.05;;
16928;SDS011;8581;47.334;11.190;2023-06-22T11:52:07;24.27;;;6.33;;
16928;SDS011;8581;47.334;11.190;2023-06-22T11:54:39;24.07;;;6.47;;
16928;SDS011;8581;47.334;11.190;2023-06-22T11:57:10;15.80;;;5.35;;
16928;SDS011;8581;47.334;11.190;2023-06-22T11:59:42;17.12;;;5.78;;
16928;SDS011;8581;47.334;11.190;2023-06-22T12:02:14;13.53;;;5.17;;
16928;SDS011;8581;47.334;11.190;2023-06-22T12:04:45;19.30;;;5.00;;
16928;SDS011;8581;47.334;11.190;2023-06-22T12:07:17;14.30;;;4.95;;
16928;SDS011;8581;47.334;11.190;2023-06-22T12:09:48;11.73;;;4.97;;
16928;SDS011;8581;47.334;11.190;2023-06-22T12:12:20;17.95;;;5.80;;
16928;SDS011;8581;47.334;11.190;2023-06-22T12:14:52;17.55;;;5.87;;
16928;SDS011;8581;47.334;11.190;2023-06-22T12:17:23;20.77;;;5.42;;
16928;SDS011;8581;47.334;11.190;2023-06-22T12:19:55;15.78;;;5.28;;
16928;SDS011;8581;47.334;11.190;2023-06-22T12:22:26;17.80;;;5.95;;
16928;SDS011;8581;47.334;11.190;2023-06-22T12:24:58;15.70;;;5.25;;
16928;SDS011;8581;47.334;11.190;2023-06-22T12:27:30;18.87;;;5.47;;
16928;SDS011;8581;47.334;11.190;2023-06-22T12:30:01;15.95;;;5.80;;
16928;SDS011;8581;47.334;11.190;2023-06-22T12:32:33;23.87;;;5.60;;
16928;SDS011;8581;47.334;11.190;2023-06-22T12:35:05;15.15;;;5.30;;
16928;SDS011;8581;47.334;11.190;2023-06-22T12:37:37;16.50;;;5.47;;
16928;SDS011;8581;47.334;11.190;2023-06-22T12:40:09;19.02;;;5.28;;
16928;SDS011;8581;47.334;11.190;2023-06-22T12:42:41;17.20;;;5.28;;
16928;SDS011;8581;47.334;11.190;2023-06-22T12:45:13;19.75;;;5.12;;
16928;SDS011;8581;47.334;11.190;2023-06-22T12:47:45;13.00;;;5.17;;
16928;SDS011;8581;47.334;11.190;2023-06-22T12:50:16;17.75;;;4.92;;
16928;SDS011;8581;47.334;11.190;2023-06-22T12:52:48;20.62;;;5.95;;
16928;SDS011;8581;47.334;11.190;2023-06-22T12:55:19;11.85;;;4.87;;
16928;SDS011;8581;47.334;11.190;2023-06-22T12:57:51;17.37;;;5.22;;
16928;SDS011;8581;47.334;11.190;2023-06-22T13:00:23;13.15;;;5.12;;
16928;SDS011;8581;47.334;11.190;2023-06-22T13:02:54;16.37;;;5.60;;
16928;SDS011;8581;47.334;11.190;2023-06-22T13:05:26;18.02;;;5.30;;
16928;SDS011;8581;47.334;11.190;2023-06-22T13:07:57;13.43;;;4.90;;
16928;SDS011;8581;47.334;11.190;2023-06-22T13:10:29;17.40;;;5.87;;
16928;SDS011;8581;47.334;11.190;2023-06-22T13:13:01;18.55;;;5.55;;
16928;SDS011;8581;47.334;11.190;2023-06-22T13:15:32;19.00;;;5.17;;
16928;SDS011;8581;47.334;11.190;2023-06-22T13:18:04;15.50;;;5.20;;
16928;SDS011;8581;47.334;11.190;2023-06-22T13:20:35;17.40;;;5.20;;
16928;SDS011;8581;47.334;11.190;2023-06-22T13:23:07;17.42;;;5.05;;
16928;SDS011;8581;47.334;11.190;2023-06-22T13:25:39;22.05;;;5.22;;
16928;SDS011;8581;47.334;11.190;2023-06-22T13:28:10;21.85;;;5.12;;
16928;SDS011;8581;47.334;11.190;2023-06-22T13:30:42;18.32;;;4.85;;
16928;SDS011;8581;47.334;11.190;2023-06-22T13:33:14;19.37;;;5.30;;
16928;SDS011;8581;47.334;11.190;2023-06-22T13:35:46;14.40;;;5.12;;
16928;SDS011;8581;47.334;11.190;2023-06-22T13:38:17;17.32;;;4.87;;
16928;SDS011;8581;47.334;11.190;2023-06-22T13:40:49;14.83;;;5.37;;
16928;SDS011;8581;47.334;11.190;2023-06-22T13:43:21;20.02;;;6.00;;
16928;SDS011;8581;47.334;11.190;2023-06-22T13:45:52;19.00;;;5.60;;
16928;SDS011;8581;47.334;11.190;2023-06-22T13:48:24;17.32;;;5.00;;
16928;SDS011;8581;47.334;11.190;2023-06-22T13:50:56;17.10;;;5.17;;
16928;SDS011;8581;47.334;11.190;2023-06-22T13:53:27;19.90;;;5.42;;
16928;SDS011;8581;47.334;11.190;2023-06-22T13:55:59;13.62;;;5.28;;
16928;SDS011;8581;47.334;11.190;2023-06-22T13:58:30;22.70;;;5.72;;
16928;SDS011;8581;47.334;11.190;2023-06-22T14:01:02;22.82;;;5.28;;
16928;SDS011;8581;47.334;11.190;2023-06-22T14:03:34;23.90;;;5.75;;
16928;SDS011;8581;47.334;11.190;2023-06-22T14:06:05;20.45;;;5.30;;
16928;SDS011;8581;47.334;11.190;2023-06-22T14:08:37;20.37;;;5.50;;
16928;SDS011;8581;47.334;11.190;2023-06-22T14:11:09;17.52;;;5.20;;
16928;SDS011;8581;47.334;11.190;2023-06-22T14:13:40;25.17;;;5.08;;
16928;SDS011;8581;47.334;11.190;2023-06-22T14:16:12;21.77;;;5.72;;
16928;SDS011;8581;47.334;11.190;2023-06-22T14:18:44;17.37;;;4.92;;
16928;SDS011;8581;47.334;11.190;2023-06-22T14:21:15;16.42;;;5.20;;
16928;SDS011;8581;47.334;11.190;2023-06-22T14:23:46;22.05;;;5.95;;
16928;SDS011;8581;47.334;11.190;2023-06-22T14:26:18;23.52;;;5.53;;
16928;SDS011;8581;47.334;11.190;2023-06-22T14:28:50;18.75;;;5.30;;
16928;SDS011;8581;47.334;11.190;2023-06-22T14:31:21;18.23;;;5.47;;
16928;SDS011;8581;47.334;11.190;2023-06-22T14:33:53;20.02;;;5.12;;
16928;SDS011;8581;47.334;11.190;2023-06-22T14:36:24;22.30;;;5.55;;
16928;SDS011;8581;47.334;11.190;2023-06-22T14:38:56;16.70;;;4.90;;
16928;SDS011;8581;47.334;11.190;2023-06-22T14:41:28;27.50;;;5.85;;
16928;SDS011;8581;47.334;11.190;2023-06-22T14:43:59;26.12;;;5.78;;
16928;SDS011;8581;47.334;11.190;2023-06-22T14:46:31;19.30;;;5.00;;
16928;SDS011;8581;47.334;11.190;2023-06-22T14:49:02;21.70;;;6.05;;
16928;SDS011;8581;47.334;11.190;2023-06-22T14:51:34;50.85;;;13.35;;
16928;SDS011;8581;47.334;11.190;2023-06-22T14:54:06;22.50;;;6.08;;
16928;SDS011;8581;47.334;11.190;2023-06-22T14:56:37;17.90;;;5.55;;
16928;SDS011;8581;47.334;11.190;2023-06-22T14:59:09;16.20;;;5.28;;